createdAt,value
2023-01-09T00:00:06.675Z,2.53
2023-01-09T00:02:33.800Z,2.95
2023-01-09T00:05:00.830Z,2.70
2023-01-09T00:07:27.827Z,2.65
2023-01-09T00:09:54.871Z,2.83
2023-01-09T00:12:21.899Z,3.15
2023-01-09T00:14:48.878Z,3.40
2023-01-09T00:17:15.921Z,3.10
2023-01-09T00:19:42.952Z,3.15
2023-01-09T00:22:09.989Z,3.30
2023-01-09T00:24:37.521Z,3.20
2023-01-09T00:27:04.586Z,3.00
2023-01-09T00:29:31.681Z,3.38
2023-01-09T00:31:58.712Z,3.40
2023-01-09T00:34:25.695Z,3.10
2023-01-09T00:36:55.183Z,3.42
2023-01-09T00:39:25.176Z,2.88
2023-01-09T00:41:52.781Z,3.00
2023-01-09T00:44:21.370Z,2.80
2023-01-09T00:46:52.342Z,2.90
2023-01-09T00:49:19.336Z,3.15
2023-01-09T00:51:46.335Z,3.10
2023-01-09T00:54:14.160Z,3.58
2023-01-09T00:56:41.198Z,3.40
2023-01-09T00:59:08.235Z,3.67
2023-01-09T01:01:35.378Z,3.85
2023-01-09T01:04:22.476Z,3.97
2023-01-09T01:07:07.960Z,4.00
2023-01-09T01:09:35.005Z,3.75
2023-01-09T01:12:06.890Z,3.75
2023-01-09T01:14:34.852Z,3.63
2023-01-09T01:17:02.010Z,3.60
2023-01-09T01:19:29.038Z,3.72
2023-01-09T01:21:56.091Z,3.85
2023-01-09T01:24:23.175Z,3.80
2023-01-09T01:26:50.147Z,3.28
2023-01-09T01:29:17.162Z,4.00
2023-01-09T01:31:44.197Z,3.38
2023-01-09T01:34:11.258Z,4.00
2023-01-09T01:36:38.251Z,4.75
2023-01-09T01:39:05.274Z,4.57
2023-01-09T01:41:32.247Z,4.35
2023-01-09T01:44:03.498Z,4.70
2023-01-09T01:46:31.002Z,4.72
2023-01-09T01:49:04.920Z,4.70
2023-01-09T01:51:32.370Z,5.30
2023-01-09T01:53:59.739Z,4.78
2023-01-09T01:56:31.702Z,4.22
2023-01-09T01:59:00.590Z,4.70
2023-01-09T02:01:27.718Z,5.25
2023-01-09T02:03:55.331Z,5.30
2023-01-09T02:06:22.351Z,5.32
2023-01-09T02:08:49.380Z,5.47
2023-01-09T02:11:16.453Z,5.43
2023-01-09T02:13:43.484Z,6.30
2023-01-09T02:16:29.375Z,5.28
2023-01-09T02:18:59.349Z,5.25
2023-01-09T02:21:35.527Z,4.88
2023-01-09T02:24:09.730Z,4.50
2023-01-09T02:26:43.277Z,5.10
2023-01-09T02:29:13.408Z,3.90
2023-01-09T02:31:40.470Z,3.03
2023-01-09T02:34:10.636Z,2.17
2023-01-09T02:36:43.300Z,1.67
2023-01-09T02:39:27.451Z,1.17
2023-01-09T02:42:10.520Z,0.90
2023-01-09T02:44:37.600Z,0.80
2023-01-09T02:47:08.960Z,0.60
2023-01-09T02:49:36.761Z,0.52
2023-01-09T02:52:09.936Z,0.50
2023-01-09T02:54:45.749Z,0.40
2023-01-09T02:57:31.307Z,0.50
2023-01-09T03:00:17.260Z,0.40
2023-01-09T03:03:03.939Z,0.50
2023-01-09T03:05:32.004Z,0.32
2023-01-09T03:08:02.611Z,0.40
2023-01-09T03:12:58.855Z,0.40
2023-01-09T03:15:27.286Z,0.50
2023-01-09T03:17:54.323Z,0.40
2023-01-09T03:20:23.194Z,0.47
2023-01-09T03:22:56.424Z,0.40
2023-01-09T03:25:23.496Z,0.40
2023-01-09T03:27:51.599Z,0.40
2023-01-09T03:30:18.794Z,0.40
2023-01-09T03:32:45.851Z,0.55
2023-01-09T03:35:12.871Z,0.30
2023-01-09T03:37:39.918Z,0.30
2023-01-09T03:40:07.312Z,0.40
2023-01-09T03:42:34.270Z,0.22
2023-01-09T03:45:01.259Z,0.30
2023-01-09T03:47:28.360Z,0.30
2023-01-09T03:49:55.408Z,0.30
2023-01-09T03:52:22.451Z,0.30
2023-01-09T03:54:49.520Z,0.30
2023-01-09T03:57:16.574Z,0.30
2023-01-09T03:59:43.623Z,0.20
2023-01-09T04:02:10.816Z,0.30
2023-01-09T04:04:37.967Z,0.20
2023-01-09T04:07:05.070Z,0.20
2023-01-09T04:09:32.124Z,0.30
2023-01-09T04:11:59.139Z,0.20
2023-01-09T04:14:26.172Z,0.30
2023-01-09T04:16:53.235Z,0.30
2023-01-09T04:19:20.279Z,0.30
2023-01-09T04:21:47.308Z,0.30
2023-01-09T04:24:14.354Z,0.30
2023-01-09T04:26:41.415Z,0.30
2023-01-09T04:29:08.452Z,0.30
2023-01-09T04:31:35.543Z,0.40
2023-01-09T04:34:02.708Z,0.32
2023-01-09T04:36:29.909Z,0.40
2023-01-09T04:38:57.062Z,0.30
2023-01-09T04:41:42.857Z,0.40
2023-01-09T04:44:09.962Z,0.50
2023-01-09T04:46:37.001Z,0.30
2023-01-09T04:49:04.044Z,0.30
2023-01-09T04:51:31.077Z,0.32
2023-01-09T04:53:58.123Z,0.30
2023-01-09T04:56:25.150Z,0.40
2023-01-09T04:58:52.229Z,0.30
2023-01-09T05:01:19.362Z,0.32
2023-01-09T05:03:46.501Z,0.30
2023-01-09T05:06:13.531Z,0.30
2023-01-09T05:08:40.570Z,0.17
2023-01-09T05:11:07.652Z,0.28
2023-01-09T05:13:34.673Z,0.30
2023-01-09T05:16:01.695Z,0.30
2023-01-09T05:18:28.768Z,0.40
2023-01-09T05:20:55.848Z,0.90
2023-01-09T05:23:22.932Z,0.40
2023-01-09T05:25:50.044Z,0.45
2023-01-09T05:28:17.079Z,0.30
2023-01-09T05:30:44.136Z,1.90
2023-01-09T05:33:11.207Z,1.63
2023-01-09T05:35:38.231Z,0.35
2023-01-09T05:38:05.282Z,0.22
2023-01-09T05:40:39.858Z,0.30
2023-01-09T05:43:07.563Z,0.68
2023-01-09T05:45:34.790Z,0.30
2023-01-09T05:48:01.958Z,0.50
2023-01-09T05:50:29.033Z,0.30
2023-01-09T05:52:58.478Z,0.40
2023-01-09T05:55:25.534Z,0.63
2023-01-09T05:57:52.557Z,0.35
2023-01-09T06:00:19.850Z,0.40
2023-01-09T06:02:46.980Z,0.30
2023-01-09T06:05:14.148Z,0.55
2023-01-09T06:07:41.267Z,0.50
2023-01-09T06:10:09.143Z,0.30
2023-01-09T06:12:36.190Z,0.40
2023-01-09T06:15:03.284Z,0.50
2023-01-09T06:17:30.364Z,0.40
2023-01-09T06:19:57.508Z,0.77
2023-01-09T06:22:24.536Z,0.40
2023-01-09T06:24:51.610Z,0.50
2023-01-09T06:27:18.674Z,0.38
2023-01-09T06:29:45.759Z,0.50
2023-01-09T06:32:12.850Z,0.40
2023-01-09T06:34:39.990Z,0.60
2023-01-09T06:37:06.999Z,0.57
2023-01-09T06:39:34.077Z,0.55
2023-01-09T06:42:01.147Z,0.40
2023-01-09T06:44:28.220Z,0.55
2023-01-09T06:46:55.261Z,0.52
2023-01-09T06:49:24.501Z,0.63
2023-01-09T06:51:51.843Z,0.40
2023-01-09T06:54:19.321Z,1.25
2023-01-09T06:56:46.407Z,2.22
2023-01-09T06:59:13.628Z,0.60
2023-01-09T07:01:40.860Z,0.55
2023-01-09T07:04:09.385Z,0.70
2023-01-09T07:06:36.535Z,0.47
2023-01-09T07:09:04.509Z,0.75
2023-01-09T07:11:31.536Z,0.60
2023-01-09T07:13:58.613Z,0.57
2023-01-09T07:16:25.737Z,0.50
2023-01-09T07:18:52.780Z,0.60
2023-01-09T07:21:19.837Z,0.85
2023-01-09T07:23:46.853Z,0.60
2023-01-09T07:26:13.878Z,0.68
2023-01-09T07:28:40.880Z,0.85
2023-01-09T07:31:08.019Z,0.73
2023-01-09T07:33:35.297Z,0.60
2023-01-09T07:36:02.374Z,0.85
2023-01-09T07:38:29.532Z,0.93
2023-01-09T07:40:56.610Z,1.20
2023-01-09T07:43:23.705Z,0.70
2023-01-09T07:45:50.804Z,1.00
2023-01-09T07:48:17.852Z,1.00
2023-01-09T07:50:44.939Z,1.02
2023-01-09T07:53:11.990Z,1.00
2023-01-09T07:55:39.023Z,0.98
2023-01-09T07:58:06.024Z,0.80
2023-01-09T08:00:33.372Z,0.93
2023-01-09T08:03:00.562Z,1.15
2023-01-09T08:05:27.659Z,1.13
2023-01-09T08:07:54.694Z,0.60
2023-01-09T08:10:21.815Z,0.80
2023-01-09T08:12:49.037Z,0.73
2023-01-09T08:15:16.274Z,0.80
2023-01-09T08:17:43.889Z,0.80
2023-01-09T08:20:12.076Z,0.93
2023-01-09T08:22:39.789Z,1.63
2023-01-09T08:25:07.078Z,0.93
2023-01-09T08:27:34.289Z,0.95
2023-01-09T08:30:01.351Z,0.90
2023-01-09T08:32:28.391Z,0.63
2023-01-09T08:34:55.454Z,0.75
2023-01-09T08:37:22.526Z,0.93
2023-01-09T08:39:49.666Z,0.93
2023-01-09T08:42:35.490Z,0.95
2023-01-09T08:45:21.371Z,0.90
2023-01-09T08:47:48.419Z,0.70
2023-01-09T08:50:15.628Z,1.00
2023-01-09T08:52:42.804Z,0.63
2023-01-09T08:55:10.101Z,0.77
2023-01-09T08:57:37.177Z,0.55
2023-01-09T09:00:04.616Z,0.88
2023-01-09T09:02:31.745Z,0.65
2023-01-09T09:04:59.341Z,0.70
2023-01-09T09:07:26.716Z,0.50
2023-01-09T09:09:56.524Z,0.70
2023-01-09T09:12:23.671Z,0.60
2023-01-09T09:15:09.237Z,0.60
2023-01-09T09:17:36.298Z,0.57
2023-01-09T09:20:03.342Z,0.80
2023-01-09T09:22:30.899Z,0.75
2023-01-09T09:24:57.976Z,0.70
2023-01-09T09:27:25.133Z,0.77
2023-01-09T09:29:52.163Z,0.60
2023-01-09T09:32:19.211Z,0.50
2023-01-09T09:34:46.278Z,0.80
2023-01-09T09:37:13.743Z,0.55
2023-01-09T09:39:40.855Z,0.60
2023-01-09T09:42:45.109Z,0.50
2023-01-09T09:45:31.301Z,0.80
2023-01-09T09:48:19.580Z,0.93
2023-01-09T09:50:46.611Z,0.95
2023-01-09T09:53:16.467Z,0.80
2023-01-09T09:55:45.115Z,0.80
2023-01-09T09:58:14.867Z,0.77
2023-01-09T10:00:41.942Z,0.68
2023-01-09T10:03:12.438Z,0.75
2023-01-09T10:05:41.597Z,0.80
2023-01-09T10:08:18.665Z,0.70
2023-01-09T10:10:50.910Z,1.08
2023-01-09T10:13:37.625Z,1.00
2023-01-09T10:16:23.874Z,0.82
2023-01-09T10:19:09.789Z,0.95
2023-01-09T10:21:59.318Z,0.90
2023-01-09T10:24:29.959Z,0.95
2023-01-09T10:26:57.178Z,1.35
2023-01-09T10:29:43.185Z,0.70
2023-01-09T10:32:19.462Z,0.88
2023-01-09T10:34:51.000Z,1.33
2023-01-09T10:37:22.620Z,0.70
2023-01-09T10:39:52.456Z,0.70
2023-01-09T10:42:22.795Z,0.73
2023-01-09T10:44:53.339Z,0.93
2023-01-09T10:49:47.616Z,0.85
2023-01-09T10:52:16.784Z,4.32
2023-01-09T10:54:46.899Z,1.10
2023-01-09T10:57:16.155Z,3.35
2023-01-09T10:59:43.291Z,12.10
2023-01-09T11:02:30.161Z,1.30
2023-01-09T11:04:57.253Z,0.73
2023-01-09T11:07:25.476Z,0.68
2023-01-09T11:10:02.570Z,0.60
2023-01-09T11:12:30.818Z,0.50
2023-01-09T11:15:03.783Z,0.70
2023-01-09T11:17:30.873Z,0.52
2023-01-09T11:20:16.705Z,0.60
2023-01-09T11:22:44.642Z,0.50
2023-01-09T11:25:13.150Z,0.50
2023-01-09T11:27:40.279Z,0.50
2023-01-09T11:30:10.723Z,0.60
2023-01-09T11:32:37.816Z,0.40
2023-01-09T11:35:05.730Z,0.47
2023-01-09T11:37:32.850Z,0.60
2023-01-09T11:40:00.286Z,0.52
2023-01-09T11:42:46.820Z,0.40
2023-01-09T11:45:25.991Z,0.40
2023-01-09T11:47:53.042Z,0.40
2023-01-09T11:50:24.918Z,0.40
2023-01-09T11:53:10.664Z,0.50
2023-01-09T11:55:42.381Z,0.38
2023-01-09T11:58:12.927Z,0.57
2023-01-09T12:00:43.481Z,0.43
2023-01-09T12:05:56.124Z,0.45
2023-01-09T12:08:28.839Z,0.50
2023-01-09T12:11:01.237Z,0.60
2023-01-09T12:13:37.947Z,0.50
2023-01-09T12:16:26.675Z,0.40
2023-01-09T12:18:59.749Z,0.50
2023-01-09T12:21:36.411Z,0.77
2023-01-09T12:24:29.603Z,1.02
2023-01-09T12:27:01.694Z,1.50
2023-01-09T12:29:47.647Z,0.80
2023-01-09T12:32:24.868Z,0.82
2023-01-09T12:35:10.526Z,0.52
2023-01-09T12:37:50.412Z,0.50
2023-01-09T12:40:17.445Z,0.50
2023-01-09T12:42:50.454Z,0.50
2023-01-09T12:45:23.563Z,0.40
2023-01-09T12:47:50.842Z,0.40
2023-01-09T12:50:36.647Z,0.50
2023-01-09T12:53:17.835Z,0.60
2023-01-09T12:55:47.193Z,0.40
2023-01-09T12:58:34.573Z,0.60
2023-01-09T13:01:01.725Z,0.60
2023-01-09T13:03:28.814Z,0.60
2023-01-09T13:05:57.391Z,0.50
2023-01-09T13:08:38.353Z,0.40
2023-01-09T13:11:19.030Z,0.55
2023-01-09T13:13:51.085Z,0.63
2023-01-09T13:16:19.518Z,0.77
2023-01-09T13:18:51.999Z,0.50
2023-01-09T13:21:19.101Z,0.50
2023-01-09T13:24:04.996Z,0.60
2023-01-09T13:26:33.809Z,0.40
2023-01-09T13:29:30.347Z,0.40
2023-01-09T13:32:26.602Z,0.45
2023-01-09T13:34:54.265Z,0.47
2023-01-09T13:37:37.050Z,0.50
2023-01-09T13:40:05.458Z,0.50
2023-01-09T13:42:58.784Z,0.57
2023-01-09T13:45:26.863Z,0.60
2023-01-09T13:48:17.959Z,0.60
2023-01-09T13:50:48.313Z,0.40
2023-01-09T13:53:18.465Z,0.40
2023-01-09T13:58:27.203Z,0.60
2023-01-09T14:00:54.333Z,0.52
2023-01-09T14:03:34.448Z,0.90
2023-01-09T14:06:01.458Z,0.70
2023-01-09T14:08:29.188Z,0.50
2023-01-09T14:10:57.853Z,1.55
2023-01-09T14:13:26.298Z,0.80
2023-01-09T14:15:53.785Z,1.27
2023-01-09T14:18:23.491Z,1.10
2023-01-09T14:21:03.643Z,1.00
2023-01-09T14:23:50.156Z,0.70
2023-01-09T14:26:25.634Z,0.70
2023-01-09T14:28:52.716Z,0.88
2023-01-09T14:31:29.903Z,0.75
2023-01-09T14:34:24.033Z,0.68
2023-01-09T14:36:58.674Z,1.00
2023-01-09T14:39:25.742Z,0.68
2023-01-09T14:42:06.398Z,0.60
2023-01-09T14:44:52.053Z,0.60
2023-01-09T14:47:23.832Z,0.40
2023-01-09T14:49:52.488Z,0.50
2023-01-09T14:52:23.227Z,0.55
2023-01-09T14:54:50.342Z,0.50
2023-01-09T14:57:24.148Z,0.50
2023-01-09T14:59:57.355Z,0.60
2023-01-09T15:02:27.579Z,0.60
2023-01-09T15:04:56.023Z,0.50
2023-01-09T15:07:23.637Z,0.65
2023-01-09T15:09:50.701Z,0.50
2023-01-09T15:12:21.525Z,0.50
2023-01-09T15:14:51.103Z,0.40
2023-01-09T15:17:18.189Z,0.47
2023-01-09T15:19:45.546Z,0.50
2023-01-09T15:22:31.402Z,0.50
2023-01-09T15:24:58.986Z,0.40
2023-01-09T15:27:26.319Z,0.40
2023-01-09T15:29:53.513Z,0.50
2023-01-09T15:39:29.696Z,0.63
2023-01-09T15:42:15.368Z,0.80
2023-01-09T15:44:43.259Z,0.50
2023-01-09T15:47:13.867Z,0.40
2023-01-09T15:52:11.836Z,0.40
2023-01-09T15:54:39.879Z,0.40
2023-01-09T15:57:25.158Z,0.60
2023-01-09T15:59:52.544Z,0.63
2023-01-09T16:02:38.469Z,0.65
2023-01-09T16:05:09.248Z,0.80
2023-01-09T16:07:36.355Z,0.88
2023-01-09T16:10:03.503Z,0.90
2023-01-09T16:12:30.571Z,0.90
2023-01-09T16:14:58.634Z,0.80
2023-01-09T16:17:31.147Z,0.63
2023-01-09T16:19:59.002Z,0.77
2023-01-09T16:22:27.060Z,0.93
2023-01-09T16:24:54.795Z,0.80
2023-01-09T16:27:26.917Z,1.40
2023-01-09T16:29:57.701Z,0.60
2023-01-09T16:32:25.840Z,0.90
2023-01-09T16:34:53.970Z,0.68
2023-01-09T16:37:21.772Z,0.80
2023-01-09T16:40:09.064Z,0.80
2023-01-09T16:42:55.038Z,0.77
2023-01-09T16:45:22.124Z,1.10
2023-01-09T16:47:49.159Z,0.80
2023-01-09T16:50:16.602Z,1.00
2023-01-09T16:52:45.256Z,0.77
2023-01-09T16:55:13.566Z,0.65
2023-01-09T16:57:41.438Z,0.85
2023-01-09T17:00:14.289Z,0.77
2023-01-09T17:02:41.413Z,0.80
2023-01-09T17:05:08.566Z,0.90
2023-01-09T17:07:36.132Z,0.65
2023-01-09T17:10:03.230Z,0.70
2023-01-09T17:12:30.265Z,1.00
2023-01-09T17:14:57.446Z,0.70
2023-01-09T17:17:24.591Z,0.80
2023-01-09T17:19:51.699Z,1.25
2023-01-09T17:22:18.723Z,0.70
2023-01-09T17:25:04.456Z,6.03
2023-01-09T17:27:53.860Z,0.73
2023-01-09T17:30:21.056Z,0.52
2023-01-09T17:32:48.492Z,0.47
2023-01-09T17:35:15.920Z,0.63
2023-01-09T17:37:43.142Z,0.80
2023-01-09T17:40:15.964Z,0.70
2023-01-09T17:42:43.037Z,0.50
2023-01-09T17:45:10.264Z,2.17
2023-01-09T17:47:37.326Z,0.60
2023-01-09T17:50:05.037Z,0.90
2023-01-09T17:52:33.062Z,0.90
2023-01-09T17:55:05.058Z,4.03
2023-01-09T17:57:32.516Z,1.10
2023-01-09T17:59:59.812Z,1.20
2023-01-09T18:02:26.906Z,0.90
2023-01-09T18:04:54.073Z,0.90
2023-01-09T18:07:22.696Z,1.10
2023-01-09T18:09:50.185Z,1.15
2023-01-09T18:12:17.232Z,1.33
2023-01-09T18:14:44.325Z,3.38
2023-01-09T18:17:13.072Z,3.05
2023-01-09T18:19:40.370Z,2.45
2023-01-09T18:22:07.408Z,2.03
2023-01-09T18:24:34.554Z,1.35
2023-01-09T18:27:01.674Z,1.00
2023-01-09T18:29:28.856Z,1.33
2023-01-09T18:31:55.974Z,1.45
2023-01-09T18:34:23.092Z,1.33
2023-01-09T18:36:50.248Z,1.25
2023-01-09T18:39:17.315Z,0.93
2023-01-09T18:41:44.398Z,1.10
2023-01-09T18:44:11.490Z,1.30
2023-01-09T18:46:39.204Z,1.17
2023-01-09T18:49:06.306Z,1.10
2023-01-09T18:51:34.302Z,2.75
2023-01-09T18:54:01.463Z,1.10
2023-01-09T18:56:28.552Z,1.23
2023-01-09T18:58:57.061Z,0.98
2023-01-09T19:01:24.345Z,1.35
2023-01-09T19:03:51.512Z,1.20
2023-01-09T19:06:18.883Z,2.40
2023-01-09T19:08:46.010Z,1.30
2023-01-09T19:11:13.107Z,1.30
2023-01-09T19:13:40.205Z,1.90
2023-01-09T19:16:07.814Z,1.40
2023-01-09T19:18:38.722Z,1.40
2023-01-09T19:21:09.658Z,1.30
2023-01-09T19:23:36.702Z,1.50
2023-01-09T19:26:08.535Z,1.23
2023-01-09T19:28:36.274Z,1.48
2023-01-09T19:31:03.702Z,1.30
2023-01-09T19:33:30.818Z,1.25
2023-01-09T19:35:57.990Z,1.27
2023-01-09T19:38:26.737Z,1.30
2023-01-09T19:40:53.775Z,1.15
2023-01-09T19:43:26.650Z,1.15
2023-01-09T19:45:54.288Z,1.27
2023-01-09T19:48:22.060Z,0.82
2023-01-09T19:50:49.135Z,1.30
2023-01-09T19:53:16.193Z,1.25
2023-01-09T19:55:43.770Z,1.65
2023-01-09T19:58:11.164Z,1.77
2023-01-09T20:00:39.295Z,2.25
2023-01-09T20:03:06.401Z,1.90
2023-01-09T20:05:33.756Z,4.18
2023-01-09T20:08:03.370Z,2.90
2023-01-09T20:10:30.444Z,4.30
2023-01-09T20:12:57.475Z,3.60
2023-01-09T20:15:24.532Z,1.90
2023-01-09T20:17:51.600Z,2.30
2023-01-09T20:20:21.749Z,1.83
2023-01-09T20:22:48.771Z,1.70
2023-01-09T20:25:15.914Z,1.60
2023-01-09T20:27:43.000Z,2.03
2023-01-09T20:30:10.403Z,1.35
2023-01-09T20:32:38.226Z,2.38
2023-01-09T20:35:05.448Z,9.43
2023-01-09T20:37:32.665Z,5.65
2023-01-09T20:39:59.787Z,5.95
2023-01-09T20:42:26.856Z,2.30
2023-01-09T20:44:53.924Z,1.35
2023-01-09T20:47:22.039Z,1.48
2023-01-09T20:49:49.115Z,2.13
2023-01-09T20:52:16.196Z,1.40
2023-01-09T20:54:45.195Z,1.10
2023-01-09T20:57:12.276Z,1.42
2023-01-09T20:59:39.425Z,1.58
2023-01-09T21:02:06.444Z,1.40
2023-01-09T21:04:33.608Z,1.00
2023-01-09T21:07:00.728Z,1.27
2023-01-09T21:09:29.169Z,1.23
2023-01-09T21:11:56.193Z,0.98
2023-01-09T21:14:23.299Z,1.10
2023-01-09T21:16:54.444Z,1.23
2023-01-09T21:19:22.262Z,0.95
2023-01-09T21:21:51.545Z,1.42
2023-01-09T21:24:20.140Z,1.38
2023-01-09T21:26:47.248Z,1.10
2023-01-09T21:29:14.755Z,1.00
2023-01-09T21:31:44.110Z,1.23
2023-01-09T21:34:12.766Z,1.27
2023-01-09T21:36:39.818Z,1.80
2023-01-09T21:39:08.267Z,1.40
2023-01-09T21:41:54.111Z,1.38
2023-01-09T21:44:40.008Z,1.52
2023-01-09T21:47:07.084Z,1.30
2023-01-09T21:49:36.008Z,1.58
2023-01-09T21:52:06.221Z,1.10
2023-01-09T21:54:33.489Z,1.10
2023-01-09T21:57:00.601Z,1.10
2023-01-09T21:59:28.908Z,1.50
2023-01-09T22:01:56.004Z,1.42
2023-01-09T22:04:23.855Z,1.63
2023-01-09T22:06:51.013Z,1.30
2023-01-09T22:09:18.077Z,1.20
2023-01-09T22:11:45.134Z,1.40
2023-01-09T22:14:16.284Z,1.08
2023-01-09T22:16:43.963Z,1.30
2023-01-09T22:19:14.519Z,1.30
2023-01-09T22:24:08.597Z,0.95
2023-01-09T22:26:35.681Z,1.50
2023-01-09T22:29:02.697Z,1.98
2023-01-09T22:31:29.810Z,1.70
2023-01-09T22:34:00.348Z,1.80
2023-01-09T22:38:55.141Z,1.33
2023-01-09T22:41:23.254Z,2.90
2023-01-09T22:43:50.325Z,1.20
2023-01-09T22:46:17.459Z,1.30
2023-01-09T22:48:44.692Z,1.40
2023-01-09T22:51:15.625Z,1.48
2023-01-09T22:53:42.774Z,1.17
2023-01-09T22:56:11.082Z,1.52
2023-01-09T22:58:38.151Z,1.20
2023-01-09T23:01:05.309Z,1.13
2023-01-09T23:03:32.509Z,1.20
2023-01-09T23:06:03.064Z,1.17
2023-01-09T23:10:57.181Z,1.48
2023-01-09T23:13:24.233Z,1.20
2023-01-09T23:15:51.367Z,1.15
2023-01-09T23:18:18.807Z,1.45
2023-01-09T23:20:55.975Z,1.10
2023-01-09T23:23:23.218Z,1.10
2023-01-09T23:25:51.034Z,1.15
2023-01-09T23:28:18.462Z,1.00
2023-01-09T23:30:45.757Z,1.30
2023-01-09T23:33:12.896Z,0.98
2023-01-09T23:35:40.023Z,1.10
2023-01-09T23:38:07.848Z,1.40
2023-01-09T23:40:38.065Z,1.20
2023-01-09T23:43:11.131Z,1.20
2023-01-09T23:45:47.189Z,1.40
2023-01-09T23:48:15.047Z,2.72
2023-01-09T23:50:48.798Z,1.80
2023-01-09T23:53:16.187Z,1.20
2023-01-09T23:55:43.326Z,1.10
2023-01-09T23:58:10.388Z,1.30
